createdAt,value
2023-05-10T00:00:32.341Z,101270.63
2023-05-10T00:02:58.979Z,101272.38
2023-05-10T00:05:25.763Z,101266.19
2023-05-10T00:07:54.670Z,101264.31
2023-05-10T00:10:21.301Z,101275.69
2023-05-10T00:12:47.943Z,101244.78
2023-05-10T00:15:14.688Z,101266.06
2023-05-10T00:17:41.546Z,101270.47
2023-05-10T00:20:08.709Z,101269.56
2023-05-10T00:22:35.456Z,101267.84
2023-05-10T00:25:02.398Z,101261.50
2023-05-10T00:27:32.087Z,101262.31
2023-05-10T00:29:58.769Z,101272.09
2023-05-10T00:32:25.430Z,101272.94
2023-05-10T00:34:55.956Z,101272.06
2023-05-10T00:37:22.650Z,101272.06
2023-05-10T00:39:54.256Z,101284.25
2023-05-10T00:42:20.997Z,101252.53
2023-05-10T00:44:49.802Z,101263.25
2023-05-10T00:47:19.640Z,101275.47
2023-05-10T00:49:46.968Z,101269.34
2023-05-10T00:52:14.113Z,101274.53
2023-05-10T00:54:40.759Z,101278.00
2023-05-10T00:57:07.462Z,101270.97
2023-05-10T00:59:36.465Z,101269.13
2023-05-10T01:02:05.624Z,101253.19
2023-05-10T01:04:32.470Z,101278.81
2023-05-10T01:07:03.917Z,101272.53
2023-05-10T01:09:30.728Z,101241.44
2023-05-10T01:11:57.710Z,101271.69
2023-05-10T01:14:25.869Z,101282.28
2023-05-10T01:16:54.289Z,101281.47
2023-05-10T01:19:27.003Z,101280.59
2023-05-10T01:22:14.929Z,101291.88
2023-05-10T01:25:03.745Z,101290.13
2023-05-10T01:27:57.573Z,101286.59
2023-05-10T01:30:48.365Z,101287.47
2023-05-10T01:33:33.272Z,101293.50
2023-05-10T01:36:12.854Z,101289.97
2023-05-10T01:38:52.897Z,101289.00
2023-05-10T01:41:31.929Z,101298.63
2023-05-10T01:44:14.469Z,101260.50
2023-05-10T01:46:42.006Z,101301.00
2023-05-10T01:49:21.415Z,101305.28
2023-05-10T01:51:55.973Z,101297.34
2023-05-10T01:54:27.426Z,101297.25
2023-05-10T01:56:59.779Z,101287.50
2023-05-10T01:59:33.088Z,101299.78
2023-05-10T02:02:03.183Z,101286.38
2023-05-10T02:04:32.913Z,101264.13
2023-05-10T02:07:00.027Z,101302.22
2023-05-10T02:09:28.947Z,101297.81
2023-05-10T02:11:56.521Z,101302.88
2023-05-10T02:14:25.475Z,101309.81
2023-05-10T02:16:54.952Z,101299.28
2023-05-10T02:19:26.177Z,101300.13
2023-05-10T02:21:55.605Z,101307.06
2023-05-10T02:24:24.996Z,101303.47
2023-05-10T02:26:54.714Z,101292.63
2023-05-10T02:29:25.859Z,101312.84
2023-05-10T02:31:55.226Z,101309.28
2023-05-10T02:34:27.298Z,101317.81
2023-05-10T02:36:55.996Z,101320.41
2023-05-10T02:39:23.289Z,101324.47
2023-05-10T02:41:51.465Z,101313.63
2023-05-10T02:44:20.411Z,101331.13
2023-05-10T02:46:48.032Z,101319.13
2023-05-10T02:49:15.626Z,101336.59
2023-05-10T02:51:48.695Z,101338.22
2023-05-10T02:54:27.217Z,101312.44
2023-05-10T02:56:59.632Z,101345.78
2023-05-10T02:59:26.309Z,101343.78
2023-05-10T03:01:53.108Z,101344.53
2023-05-10T03:04:19.838Z,101341.78
2023-05-10T03:06:46.750Z,101331.78
2023-05-10T03:09:16.701Z,101355.44
2023-05-10T03:12:12.613Z,101349.22
2023-05-10T03:14:58.119Z,101350.81
2023-05-10T03:17:55.280Z,101357.72
2023-05-10T03:20:27.000Z,101348.69
2023-05-10T03:22:59.278Z,101336.94
2023-05-10T03:25:33.456Z,101356.50
2023-05-10T03:28:03.331Z,101327.00
2023-05-10T03:30:30.923Z,101357.91
2023-05-10T03:33:05.025Z,101361.28
2023-05-10T03:35:31.862Z,101371.66
2023-05-10T03:37:58.468Z,101354.72
2023-05-10T03:40:26.892Z,101367.97
2023-05-10T03:42:53.488Z,101369.56
2023-05-10T03:45:22.369Z,101372.13
2023-05-10T03:47:49.028Z,101369.41
2023-05-10T03:50:15.886Z,101377.03
2023-05-10T03:52:42.897Z,101361.91
2023-05-10T03:55:11.988Z,101385.63
2023-05-10T03:57:41.326Z,101365.38
2023-05-10T04:00:08.407Z,101345.72
2023-05-10T04:02:38.295Z,101359.88
2023-05-10T04:05:08.262Z,101380.31
2023-05-10T04:07:34.957Z,101372.34
2023-05-10T04:10:06.621Z,101388.13
2023-05-10T04:12:33.376Z,101387.16
2023-05-10T04:15:02.240Z,101387.97
2023-05-10T04:17:28.948Z,101392.44
2023-05-10T04:19:58.526Z,101394.09
2023-05-10T04:22:28.858Z,101398.53
2023-05-10T04:24:55.575Z,101402.09
2023-05-10T04:27:22.162Z,101403.03
2023-05-10T04:29:49.499Z,101378.22
2023-05-10T04:32:17.369Z,101406.56
2023-05-10T04:34:44.661Z,101409.31
2023-05-10T04:37:11.290Z,101405.75
2023-05-10T04:39:42.291Z,101409.44
2023-05-10T04:42:12.190Z,101412.13
2023-05-10T04:44:38.775Z,101408.78
2023-05-10T04:47:05.711Z,101408.84
2023-05-10T04:49:34.492Z,101408.13
2023-05-10T04:52:03.398Z,101409.06
2023-05-10T04:54:29.979Z,101411.81
2023-05-10T04:56:56.598Z,101399.31
2023-05-10T04:59:23.253Z,101412.75
2023-05-10T05:01:49.928Z,101410.09
2023-05-10T05:04:18.891Z,101413.75
2023-05-10T05:06:45.649Z,101424.34
2023-05-10T05:09:12.242Z,101420.03
2023-05-10T05:11:39.262Z,101426.00
2023-05-10T05:14:05.981Z,101432.94
2023-05-10T05:16:34.805Z,101420.44
2023-05-10T05:19:02.056Z,101445.13
2023-05-10T05:21:29.301Z,101439.03
2023-05-10T05:23:58.112Z,101438.28
2023-05-10T05:26:24.826Z,101448.13
2023-05-10T05:28:54.844Z,101442.94
2023-05-10T05:31:22.056Z,101448.41
2023-05-10T05:33:48.757Z,101452.91
2023-05-10T05:36:15.393Z,101451.16
2023-05-10T05:38:42.121Z,101454.91
2023-05-10T05:41:08.748Z,101456.91
2023-05-10T05:43:38.314Z,101443.88
2023-05-10T05:46:05.576Z,101448.50
2023-05-10T05:48:34.703Z,101445.94
2023-05-10T05:51:01.449Z,101449.91
2023-05-10T05:53:30.632Z,101458.34
2023-05-10T05:56:01.516Z,101454.34
2023-05-10T05:58:30.609Z,101445.09
2023-05-10T06:00:57.217Z,101465.00
2023-05-10T06:03:26.939Z,101457.75
2023-05-10T06:05:54.862Z,101465.41
2023-05-10T06:08:21.630Z,101424.91
2023-05-10T06:10:48.239Z,101473.19
2023-05-10T06:13:17.424Z,101476.22
2023-05-10T06:15:46.587Z,101486.13
2023-05-10T06:18:15.396Z,101484.72
2023-05-10T06:20:43.125Z,101488.50
2023-05-10T06:23:12.086Z,101485.25
2023-05-10T06:25:38.694Z,101488.13
2023-05-10T06:28:05.292Z,101486.34
2023-05-10T06:30:31.973Z,101474.84
2023-05-10T06:32:58.731Z,101497.94
2023-05-10T06:35:25.429Z,101501.47
2023-05-10T06:37:52.574Z,101507.72
2023-05-10T06:40:19.439Z,101508.72
2023-05-10T06:42:49.379Z,101496.31
2023-05-10T06:45:19.520Z,101504.34
2023-05-10T06:47:48.534Z,101515.03
2023-05-10T06:50:15.194Z,101513.41
2023-05-10T06:52:41.917Z,101511.75
2023-05-10T06:55:11.198Z,101480.81
2023-05-10T06:57:37.830Z,101502.31
2023-05-10T07:00:08.098Z,101496.38
2023-05-10T07:02:37.824Z,101467.31
2023-05-10T07:05:04.774Z,101514.56
2023-05-10T07:07:31.476Z,101506.00
2023-05-10T07:10:00.586Z,101514.91
2023-05-10T07:12:29.792Z,101506.13
2023-05-10T07:14:58.748Z,101510.59
2023-05-10T07:17:27.930Z,101522.03
2023-05-10T07:19:57.150Z,101518.56
2023-05-10T07:22:25.878Z,101513.63
2023-05-10T07:24:57.398Z,101508.06
2023-05-10T07:27:26.449Z,101520.31
2023-05-10T07:29:55.784Z,101525.09
2023-05-10T07:32:25.129Z,101522.63
2023-05-10T07:34:54.080Z,101518.06
2023-05-10T07:37:20.812Z,101527.31
2023-05-10T07:39:49.766Z,101517.88
2023-05-10T07:42:18.685Z,101503.00
2023-05-10T07:44:45.389Z,101521.38
2023-05-10T07:47:12.199Z,101501.38
2023-05-10T07:49:39.400Z,101488.19
2023-05-10T07:52:05.986Z,101495.97
2023-05-10T07:54:32.878Z,101509.72
2023-05-10T07:57:00.786Z,101515.41
2023-05-10T07:59:27.557Z,101512.91
2023-05-10T08:01:54.403Z,101501.53
2023-05-10T08:04:21.120Z,101509.59
2023-05-10T08:06:50.143Z,101506.88
2023-05-10T08:09:17.173Z,101510.47
2023-05-10T08:11:43.892Z,101508.88
2023-05-10T08:14:10.596Z,101501.28
2023-05-10T08:16:39.900Z,101501.44
2023-05-10T08:19:09.142Z,101497.72
2023-05-10T08:21:36.861Z,101485.94
2023-05-10T08:24:06.437Z,101505.16
2023-05-10T08:26:37.646Z,101496.78
2023-05-10T08:29:04.313Z,101510.22
2023-05-10T08:31:33.657Z,101507.38
2023-05-10T08:34:02.768Z,101512.97
2023-05-10T08:36:33.140Z,101500.16
2023-05-10T08:38:59.857Z,101498.78
2023-05-10T08:41:31.123Z,101505.47
2023-05-10T08:43:57.768Z,101494.22
2023-05-10T08:46:24.663Z,101494.41
2023-05-10T08:48:53.214Z,101496.50
2023-05-10T08:51:23.630Z,101485.09
2023-05-10T08:53:50.601Z,101484.78
2023-05-10T08:56:18.725Z,101494.81
2023-05-10T08:58:45.613Z,101498.19
2023-05-10T09:01:16.091Z,101485.69
2023-05-10T09:03:45.669Z,101492.50
2023-05-10T09:06:14.315Z,101487.13
2023-05-10T09:08:42.751Z,101486.66
2023-05-10T09:11:11.062Z,101499.06
2023-05-10T09:13:37.809Z,101484.03
2023-05-10T09:16:13.896Z,101495.66
2023-05-10T09:18:48.371Z,101496.66
2023-05-10T09:21:15.079Z,101491.53
2023-05-10T09:23:48.235Z,101488.94
2023-05-10T09:26:15.425Z,101466.38
2023-05-10T09:29:01.116Z,101489.50
2023-05-10T09:31:47.686Z,101488.44
2023-05-10T09:34:29.834Z,101500.81
2023-05-10T09:37:05.881Z,101496.66
2023-05-10T09:39:42.476Z,101494.38
2023-05-10T09:42:10.678Z,101494.25
2023-05-10T09:44:39.255Z,101489.91
2023-05-10T09:47:07.176Z,101495.06
2023-05-10T09:49:34.383Z,101482.63
2023-05-10T09:52:05.611Z,101484.03
2023-05-10T09:54:35.961Z,101482.88
2023-05-10T09:57:06.070Z,101491.59
2023-05-10T09:59:35.976Z,101497.16
2023-05-10T10:02:03.692Z,101493.50
2023-05-10T10:04:30.518Z,101480.69
2023-05-10T10:07:04.859Z,101458.53
2023-05-10T10:09:34.994Z,101486.16
2023-05-10T10:12:03.151Z,101475.09
2023-05-10T10:14:30.555Z,101489.03
2023-05-10T10:17:08.043Z,101482.94
2023-05-10T10:19:36.977Z,101482.19
2023-05-10T10:22:04.220Z,101477.81
2023-05-10T10:24:33.462Z,101483.44
2023-05-10T10:27:16.488Z,101487.69
2023-05-10T10:29:53.452Z,101484.91
2023-05-10T10:32:31.264Z,101467.97
2023-05-10T10:35:01.464Z,101471.88
2023-05-10T10:37:44.492Z,101501.84
2023-05-10T10:40:35.177Z,101490.63
2023-05-10T10:43:24.423Z,101489.34
2023-05-10T10:46:11.248Z,101487.44
2023-05-10T10:48:37.919Z,101490.72
2023-05-10T10:51:04.558Z,101486.78
2023-05-10T10:53:31.692Z,101487.31
2023-05-10T10:56:10.491Z,101495.81
2023-05-10T10:58:41.087Z,101486.50
2023-05-10T11:01:16.431Z,101483.44
2023-05-10T11:04:08.128Z,101490.91
2023-05-10T11:06:39.349Z,101487.63
2023-05-10T11:09:10.956Z,101500.25
2023-05-10T11:11:49.778Z,101496.94
2023-05-10T11:14:24.231Z,101495.41
2023-05-10T11:16:51.188Z,101507.00
2023-05-10T11:19:18.969Z,101491.88
2023-05-10T11:21:50.208Z,101496.19
2023-05-10T11:24:23.605Z,101495.28
2023-05-10T11:26:54.372Z,101505.06
2023-05-10T11:29:21.358Z,101497.97
2023-05-10T11:31:49.584Z,101503.94
2023-05-10T11:34:32.370Z,101481.75
2023-05-10T11:36:59.327Z,101479.03
2023-05-10T11:39:30.983Z,101490.50
2023-05-10T11:41:59.065Z,101497.63
2023-05-10T11:44:33.116Z,101486.88
2023-05-10T11:47:01.818Z,101490.91
2023-05-10T11:49:28.793Z,101488.00
2023-05-10T11:52:05.481Z,101487.75
2023-05-10T11:54:32.262Z,101480.50
2023-05-10T11:56:58.857Z,101472.44
2023-05-10T11:59:26.309Z,101469.91
2023-05-10T12:01:53.077Z,101477.84
2023-05-10T12:04:20.584Z,101456.72
2023-05-10T12:06:50.396Z,101477.06
2023-05-10T12:09:28.101Z,101483.56
2023-05-10T12:12:03.452Z,101489.34
2023-05-10T12:14:34.356Z,101494.94
2023-05-10T12:17:00.990Z,101504.91
2023-05-10T12:19:27.641Z,101501.56
2023-05-10T12:21:58.816Z,101499.19
2023-05-10T12:24:26.445Z,101505.59
2023-05-10T12:27:05.248Z,101499.56
2023-05-10T12:29:34.409Z,101493.50
2023-05-10T12:32:01.326Z,101488.22
2023-05-10T12:34:37.172Z,101488.16
2023-05-10T12:37:07.443Z,101497.84
2023-05-10T12:39:50.501Z,101503.13
2023-05-10T12:42:17.648Z,101477.53
2023-05-10T12:44:44.228Z,101491.69
2023-05-10T12:47:13.504Z,101494.34
2023-05-10T12:49:42.275Z,101493.50
2023-05-10T12:52:11.225Z,101479.38
2023-05-10T12:54:37.840Z,101487.31
2023-05-10T12:57:04.447Z,101495.25
2023-05-10T12:59:31.155Z,101488.19
2023-05-10T13:01:59.118Z,101489.94
2023-05-10T13:04:25.728Z,101495.22
2023-05-10T13:06:52.399Z,101491.66
2023-05-10T13:09:19.013Z,101485.50
2023-05-10T13:11:49.077Z,101483.72
2023-05-10T13:14:18.002Z,101488.13
2023-05-10T13:16:44.830Z,101493.41
2023-05-10T13:19:12.570Z,101496.91
2023-05-10T13:21:47.083Z,101489.81
2023-05-10T13:24:16.715Z,101492.41
2023-05-10T13:26:45.988Z,101499.44
2023-05-10T13:29:12.641Z,101504.69
2023-05-10T13:31:39.285Z,101506.44
2023-05-10T13:34:06.441Z,101511.72
2023-05-10T13:36:33.059Z,101509.09
2023-05-10T13:38:59.813Z,101497.63
2023-05-10T13:41:26.536Z,101523.19
2023-05-10T13:43:56.057Z,101499.34
2023-05-10T13:46:25.219Z,101517.88
2023-05-10T13:48:51.900Z,101510.81
2023-05-10T13:51:18.682Z,101494.03
2023-05-10T13:53:45.314Z,101509.03
2023-05-10T13:56:11.987Z,101501.03
2023-05-10T13:58:38.679Z,101500.06
2023-05-10T14:01:05.949Z,101504.47
2023-05-10T14:03:33.660Z,101476.16
2023-05-10T14:06:00.504Z,101500.88
2023-05-10T14:08:28.686Z,101505.22
2023-05-10T14:10:57.315Z,101505.16
2023-05-10T14:13:24.740Z,101483.84
2023-05-10T14:15:57.307Z,101512.88
2023-05-10T14:18:24.035Z,101489.78
2023-05-10T14:20:50.782Z,101516.19
2023-05-10T14:23:17.643Z,101494.13
2023-05-10T14:25:44.567Z,101507.38
2023-05-10T14:28:11.127Z,101499.53
2023-05-10T14:30:40.048Z,101494.31
2023-05-10T14:33:09.122Z,101496.16
2023-05-10T14:35:35.909Z,101491.88
2023-05-10T14:38:04.838Z,101480.41
2023-05-10T14:40:34.123Z,101496.31
2023-05-10T14:43:03.304Z,101483.13
2023-05-10T14:45:30.101Z,101487.56
2023-05-10T14:47:56.710Z,101466.44
2023-05-10T14:50:36.579Z,101479.66
2023-05-10T14:53:04.381Z,101475.25
2023-05-10T14:55:33.704Z,101469.97
2023-05-10T14:58:00.421Z,101469.09
2023-05-10T15:00:28.912Z,101460.22
2023-05-10T15:02:58.662Z,101461.91
2023-05-10T15:05:25.863Z,101453.88
2023-05-10T15:07:53.006Z,101459.03
2023-05-10T15:10:24.309Z,101449.22
2023-05-10T15:12:53.669Z,101455.31
2023-05-10T15:15:22.841Z,101454.22
2023-05-10T15:17:49.687Z,101460.25
2023-05-10T15:20:18.962Z,101467.16
2023-05-10T15:22:45.617Z,101470.53
2023-05-10T15:25:15.270Z,101448.22
2023-05-10T15:27:44.660Z,101481.59
2023-05-10T15:30:11.947Z,101485.91
2023-05-10T15:32:41.588Z,101480.63
2023-05-10T15:35:11.559Z,101477.19
2023-05-10T15:37:40.950Z,101487.00
2023-05-10T15:40:07.940Z,101474.81
2023-05-10T15:42:36.780Z,101474.06
2023-05-10T15:45:03.761Z,101467.16
2023-05-10T15:47:31.302Z,101488.38
2023-05-10T15:49:58.013Z,101468.16
2023-05-10T15:52:24.678Z,101485.88
2023-05-10T15:54:51.699Z,101484.16
2023-05-10T15:57:20.960Z,101478.88
2023-05-10T15:59:47.692Z,101446.28
2023-05-10T16:02:14.630Z,101475.47
2023-05-10T16:04:46.113Z,101469.34
2023-05-10T16:07:12.747Z,101469.34
2023-05-10T16:09:39.416Z,101472.75
2023-05-10T16:12:06.097Z,101472.72
2023-05-10T16:14:32.879Z,101470.09
2023-05-10T16:17:03.162Z,101473.53
2023-05-10T16:19:31.961Z,101466.44
2023-05-10T16:21:58.808Z,101470.78
2023-05-10T16:24:27.011Z,101477.69
2023-05-10T16:26:53.635Z,101477.56
2023-05-10T16:29:22.689Z,101466.94
2023-05-10T16:31:49.382Z,101465.09
2023-05-10T16:34:16.543Z,101477.44
2023-05-10T16:36:45.438Z,101483.66
2023-05-10T16:39:12.081Z,101468.66
2023-05-10T16:41:38.698Z,101472.22
2023-05-10T16:44:05.523Z,101468.69
2023-05-10T16:46:33.190Z,101483.69
2023-05-10T16:49:00.350Z,101486.31
2023-05-10T16:51:38.514Z,101488.94
2023-05-10T16:54:07.759Z,101493.38
2023-05-10T16:56:34.422Z,101490.75
2023-05-10T16:59:01.280Z,101482.91
2023-05-10T17:01:30.296Z,101484.66
2023-05-10T17:03:59.318Z,101481.09
2023-05-10T17:06:26.096Z,101481.09
2023-05-10T17:08:54.988Z,101486.34
2023-05-10T17:11:21.964Z,101488.06
2023-05-10T17:13:48.662Z,101483.63
2023-05-10T17:16:15.419Z,101455.28
2023-05-10T17:18:45.889Z,101483.50
2023-05-10T17:21:12.666Z,101486.16
2023-05-10T17:23:39.272Z,101474.69
2023-05-10T17:26:09.845Z,101487.78
2023-05-10T17:28:36.572Z,101491.25
2023-05-10T17:31:03.305Z,101479.72
2023-05-10T17:33:32.446Z,101496.31
2023-05-10T17:36:01.447Z,101466.19
2023-05-10T17:38:28.497Z,101486.47
2023-05-10T17:40:55.224Z,101498.78
2023-05-10T17:43:26.132Z,101458.13
2023-05-10T17:45:53.007Z,101493.53
2023-05-10T17:48:22.055Z,101493.56
2023-05-10T17:50:52.755Z,101481.25
2023-05-10T17:53:21.699Z,101495.44
2023-05-10T17:55:48.432Z,101494.59
2023-05-10T17:58:17.287Z,101490.09
2023-05-10T18:00:43.946Z,101500.75
2023-05-10T18:03:11.647Z,101488.41
2023-05-10T18:05:40.828Z,101499.00
2023-05-10T18:08:08.411Z,101500.81
2023-05-10T18:10:39.968Z,101499.00
2023-05-10T18:13:08.783Z,101488.31
2023-05-10T18:15:35.868Z,101505.97
2023-05-10T18:18:04.290Z,101502.38
2023-05-10T18:20:31.904Z,101489.91
2023-05-10T18:22:58.699Z,101514.53
2023-05-10T18:25:27.961Z,101451.63
2023-05-10T18:27:54.631Z,101511.63
2023-05-10T18:30:22.686Z,101509.66
2023-05-10T18:32:49.400Z,101526.22
2023-05-10T18:35:16.413Z,101511.94
2023-05-10T18:37:45.683Z,101519.72
2023-05-10T18:40:14.818Z,101524.81
2023-05-10T18:42:44.233Z,101528.16
2023-05-10T18:45:11.677Z,101526.28
2023-05-10T18:47:38.284Z,101524.38
2023-05-10T18:50:05.643Z,101520.78
2023-05-10T18:52:32.291Z,101524.09
2023-05-10T18:54:58.919Z,101520.44
2023-05-10T18:57:25.629Z,101501.56
2023-05-10T18:59:52.256Z,101531.47
2023-05-10T19:02:19.033Z,101527.81
2023-05-10T19:04:46.302Z,101524.94
2023-05-10T19:07:13.030Z,101530.94
2023-05-10T19:09:39.717Z,101531.69
2023-05-10T19:12:06.425Z,101535.94
2023-05-10T19:14:33.081Z,101540.19
2023-05-10T19:17:02.465Z,101544.34
2023-05-10T19:19:30.217Z,101537.16
2023-05-10T19:21:56.937Z,101537.03
2023-05-10T19:24:25.622Z,101538.63
2023-05-10T19:26:52.662Z,101542.94
2023-05-10T19:29:21.532Z,101548.03
2023-05-10T19:31:48.984Z,101552.25
2023-05-10T19:34:16.290Z,101548.53
2023-05-10T19:36:42.957Z,101552.84
2023-05-10T19:39:11.881Z,101552.63
2023-05-10T19:41:38.771Z,101539.16
2023-05-10T19:44:07.728Z,101556.75
2023-05-10T19:46:34.458Z,101562.53
2023-05-10T19:49:01.147Z,101567.75
2023-05-10T19:51:27.824Z,101555.94
2023-05-10T19:53:57.346Z,101573.41
2023-05-10T19:56:23.986Z,101587.28
2023-05-10T19:58:53.289Z,101578.25
2023-05-10T20:01:20.018Z,101571.78
2023-05-10T20:03:46.717Z,101583.81
2023-05-10T20:06:13.471Z,101583.84
2023-05-10T20:08:40.205Z,101589.91
2023-05-10T20:11:06.816Z,101591.44
2023-05-10T20:13:33.620Z,101595.59
2023-05-10T20:16:00.737Z,101585.78
2023-05-10T20:18:32.378Z,101600.53
2023-05-10T20:21:00.545Z,101604.75
2023-05-10T20:23:29.422Z,101601.03
2023-05-10T20:25:56.065Z,101597.25
2023-05-10T20:28:27.225Z,101608.66
2023-05-10T20:30:55.315Z,101602.16
2023-05-10T20:33:22.771Z,101618.88
2023-05-10T20:35:52.506Z,101621.28
2023-05-10T20:38:21.989Z,101599.00
2023-05-10T20:40:51.279Z,101621.00
2023-05-10T20:43:18.901Z,101611.09
2023-05-10T20:45:45.595Z,101621.63
2023-05-10T20:48:12.416Z,101610.88
2023-05-10T20:50:41.248Z,101619.56
2023-05-10T20:53:14.599Z,101617.66
2023-05-10T20:55:41.348Z,101615.81
2023-05-10T20:58:10.397Z,101620.00
2023-05-10T21:00:39.294Z,101595.88
2023-05-10T21:03:06.065Z,101635.44
2023-05-10T21:05:32.891Z,101624.66
2023-05-10T21:07:59.620Z,101629.97
2023-05-10T21:10:28.358Z,101640.28
2023-05-10T21:12:55.938Z,101626.66
2023-05-10T21:15:24.535Z,101618.72
2023-05-10T21:17:51.781Z,101618.63
2023-05-10T21:20:18.885Z,101623.22
2023-05-10T21:22:45.829Z,101633.44
2023-05-10T21:25:14.749Z,101637.84
2023-05-10T21:27:41.497Z,101642.13
2023-05-10T21:30:11.678Z,101640.28
2023-05-10T21:32:38.544Z,101643.63
2023-05-10T21:35:05.874Z,101643.53
2023-05-10T21:37:32.687Z,101638.94
2023-05-10T21:39:59.350Z,101638.91
2023-05-10T21:42:26.265Z,101621.00
2023-05-10T21:44:53.010Z,101617.19
2023-05-10T21:47:22.585Z,101635.91
2023-05-10T21:49:50.575Z,101632.22
2023-05-10T21:52:17.451Z,101640.13
2023-05-10T21:54:44.219Z,101648.72
2023-05-10T21:57:10.906Z,101644.22
2023-05-10T21:59:40.131Z,101649.44
2023-05-10T22:02:06.819Z,101651.06
2023-05-10T22:04:33.582Z,101652.59
2023-05-10T22:07:00.462Z,101631.16
2023-05-10T22:09:27.134Z,101647.81
2023-05-10T22:11:53.770Z,101636.22
2023-05-10T22:14:22.898Z,101645.09
2023-05-10T22:16:51.864Z,101652.88
2023-05-10T22:19:18.735Z,101656.19
2023-05-10T22:21:47.638Z,101644.44
2023-05-10T22:24:14.501Z,101657.78
2023-05-10T22:26:43.395Z,101658.44
2023-05-10T22:29:12.562Z,101659.22
2023-05-10T22:31:39.334Z,101654.72
2023-05-10T22:34:06.264Z,101659.88
2023-05-10T22:36:32.951Z,101663.19
2023-05-10T22:38:59.568Z,101670.72
2023-05-10T22:41:26.280Z,101668.19
2023-05-10T22:43:55.557Z,101670.72
2023-05-10T22:46:22.295Z,101669.78
2023-05-10T22:48:49.069Z,101670.50
2023-05-10T22:51:21.212Z,101668.53
2023-05-10T22:53:48.107Z,101656.81
2023-05-10T22:56:17.370Z,101664.69
2023-05-10T22:58:44.285Z,101647.59
2023-05-10T23:01:11.131Z,101663.44
2023-05-10T23:03:37.772Z,101641.06
2023-05-10T23:06:04.994Z,101672.06
2023-05-10T23:08:36.583Z,101655.97
2023-05-10T23:11:03.312Z,101657.41
2023-05-10T23:13:29.989Z,101665.69
2023-05-10T23:15:56.851Z,101658.63
2023-05-10T23:18:25.877Z,101646.84
2023-05-10T23:20:55.409Z,101660.09
2023-05-10T23:23:24.637Z,101664.41
2023-05-10T23:25:53.456Z,101670.28
2023-05-10T23:28:20.141Z,101668.47
2023-05-10T23:30:46.944Z,101661.53
2023-05-10T23:33:14.364Z,101664.06
2023-05-10T23:35:41.361Z,101668.34
2023-05-10T23:38:08.155Z,101663.81
2023-05-10T23:40:35.726Z,101668.91
2023-05-10T23:43:02.610Z,101666.88
2023-05-10T23:45:29.391Z,101649.06
2023-05-10T23:47:56.265Z,101663.28
2023-05-10T23:50:23.045Z,101668.56
2023-05-10T23:52:49.640Z,101669.34
2023-05-10T23:55:16.464Z,101668.31
2023-05-10T23:57:45.471Z,101655.72
